createdAt,value
2017-12-04T00:00:18.177Z,69.50
2017-12-04T00:01:18.194Z,67.70
2017-12-04T00:02:18.208Z,66.80
2017-12-04T00:03:18.221Z,65.90
2017-12-04T00:04:18.233Z,68.10
2017-12-04T00:05:18.249Z,66.70
2017-12-04T00:06:18.262Z,65.70
2017-12-04T00:07:18.276Z,66.70
2017-12-04T00:08:18.288Z,68.40
2017-12-04T00:09:18.302Z,70.50
2017-12-04T00:10:18.313Z,76.60
2017-12-04T00:11:18.335Z,73.10
2017-12-04T00:12:18.344Z,75.40
2017-12-04T00:13:18.360Z,74.70
2017-12-04T00:14:18.368Z,84.90
2017-12-04T00:15:18.386Z,81.60
2017-12-04T00:16:18.397Z,71.30
2017-12-04T00:17:18.409Z,72.10
2017-12-04T00:18:18.422Z,69.20
2017-12-04T00:19:18.444Z,71.00
2017-12-04T00:20:18.453Z,65.10
2017-12-04T00:21:18.464Z,72.30
2017-12-04T00:22:18.486Z,67.80
2017-12-04T00:23:18.495Z,67.00
2017-12-04T00:24:18.506Z,67.80
2017-12-04T00:25:18.529Z,66.40
2017-12-04T00:26:18.542Z,68.50
2017-12-04T00:27:18.548Z,83.60
2017-12-04T00:28:18.561Z,69.90
2017-12-04T00:29:18.573Z,75.90
2017-12-04T00:30:18.589Z,73.10
2017-12-04T00:31:18.601Z,73.00
2017-12-04T00:32:18.613Z,73.90
2017-12-04T00:33:18.632Z,72.80
2017-12-04T00:34:18.642Z,71.70
2017-12-04T00:35:18.656Z,72.80
2017-12-04T00:36:18.669Z,80.90
2017-12-04T00:37:18.679Z,69.30
2017-12-04T00:38:18.700Z,73.00
2017-12-04T00:39:18.710Z,68.00
2017-12-04T00:40:18.728Z,72.30
2017-12-04T00:41:18.739Z,72.70
2017-12-04T00:42:18.754Z,69.00
2017-12-04T00:43:18.772Z,73.00
2017-12-04T00:44:18.782Z,68.80
2017-12-04T00:45:18.795Z,71.40
2017-12-04T00:46:18.804Z,75.00
2017-12-04T00:47:18.820Z,73.10
2017-12-04T00:48:18.832Z,69.00
2017-12-04T00:49:18.846Z,77.90
2017-12-04T00:50:18.863Z,71.20
2017-12-04T00:51:18.874Z,69.50
2017-12-04T00:52:18.887Z,74.40
2017-12-04T00:53:18.900Z,73.40
2017-12-04T00:54:18.916Z,65.60
2017-12-04T00:55:18.928Z,66.70
2017-12-04T00:56:18.945Z,64.10
2017-12-04T00:57:18.956Z,64.20
2017-12-04T00:58:18.971Z,66.00
2017-12-04T00:59:18.982Z,66.40
2017-12-04T01:00:19.000Z,65.40
2017-12-04T01:01:19.011Z,78.70
2017-12-04T01:02:19.024Z,75.30
2017-12-04T01:03:19.039Z,74.40
2017-12-04T01:04:19.051Z,76.20
2017-12-04T01:05:19.066Z,72.00
2017-12-04T01:06:19.077Z,77.60
2017-12-04T01:07:19.099Z,73.10
2017-12-04T01:08:19.106Z,79.00
2017-12-04T01:09:19.119Z,76.50
2017-12-04T01:10:19.137Z,75.80
2017-12-04T01:11:19.146Z,85.10
2017-12-04T01:12:19.160Z,78.20
2017-12-04T01:13:19.174Z,76.20
2017-12-04T01:14:19.189Z,90.90
2017-12-04T01:15:19.205Z,80.40
2017-12-04T01:16:19.213Z,82.90
2017-12-04T01:17:19.231Z,89.70
2017-12-04T01:18:19.243Z,90.90
2017-12-04T01:19:20.170Z,89.10
2017-12-04T01:20:19.270Z,86.70
2017-12-04T01:21:19.279Z,80.80
2017-12-04T01:22:19.297Z,83.00
2017-12-04T01:23:19.311Z,111.90
2017-12-04T01:24:19.322Z,82.70
2017-12-04T01:25:19.338Z,89.30
2017-12-04T01:26:19.348Z,84.60
2017-12-04T01:27:19.358Z,83.50
2017-12-04T01:28:19.374Z,98.20
2017-12-04T01:29:19.439Z,106.90
2017-12-04T01:30:19.400Z,90.00
2017-12-04T01:31:19.416Z,96.90
2017-12-04T01:32:19.428Z,91.80
2017-12-04T01:33:19.442Z,94.90
2017-12-04T01:34:19.456Z,104.50
2017-12-04T01:35:19.473Z,91.40
2017-12-04T01:36:19.492Z,95.20
2017-12-04T01:37:19.494Z,81.60
2017-12-04T01:38:19.508Z,74.60
2017-12-04T01:39:19.520Z,88.40
2017-12-04T01:40:19.534Z,77.80
2017-12-04T01:41:19.548Z,72.70
2017-12-04T01:42:19.561Z,74.00
2017-12-04T01:43:19.574Z,65.20
2017-12-04T01:44:19.589Z,68.80
2017-12-04T01:45:19.604Z,77.30
2017-12-04T01:46:19.613Z,75.70
2017-12-04T01:47:19.628Z,75.70
2017-12-04T01:48:19.639Z,67.40
2017-12-04T01:49:19.656Z,62.30
2017-12-04T01:50:19.669Z,62.40
2017-12-04T01:51:19.681Z,59.70
2017-12-04T01:52:19.694Z,65.60
2017-12-04T01:53:19.712Z,61.70
2017-12-04T01:54:19.722Z,73.30
2017-12-04T01:55:19.735Z,63.60
2017-12-04T01:56:19.746Z,69.10
2017-12-04T01:57:19.763Z,67.70
2017-12-04T01:58:19.777Z,73.10
2017-12-04T01:59:19.788Z,64.70
2017-12-04T02:00:19.804Z,68.10
2017-12-04T02:01:19.892Z,67.60
2017-12-04T02:02:19.834Z,73.40
2017-12-04T02:03:19.844Z,73.80
2017-12-04T02:04:19.860Z,69.30
2017-12-04T02:05:19.875Z,65.80
2017-12-04T02:06:19.888Z,63.70
2017-12-04T02:07:19.901Z,59.80
2017-12-04T02:08:19.913Z,56.90
2017-12-04T02:09:19.930Z,59.20
2017-12-04T02:10:19.940Z,61.70
2017-12-04T02:11:19.952Z,57.60
2017-12-04T02:12:19.964Z,64.60
2017-12-04T02:13:19.979Z,66.00
2017-12-04T02:14:19.993Z,70.40
2017-12-04T02:15:20.004Z,70.10
2017-12-04T02:16:20.018Z,68.20
2017-12-04T02:17:20.032Z,76.30
2017-12-04T02:18:20.047Z,65.70
2017-12-04T02:19:20.063Z,74.70
2017-12-04T02:20:20.073Z,70.50
2017-12-04T02:21:20.088Z,77.40
2017-12-04T02:22:20.101Z,84.00
2017-12-04T02:23:20.113Z,78.80
2017-12-04T02:24:20.130Z,65.60
2017-12-04T02:25:20.139Z,71.70
2017-12-04T02:26:20.152Z,73.90
2017-12-04T02:27:20.165Z,79.00
2017-12-04T02:28:20.189Z,71.10
2017-12-04T02:29:20.193Z,68.10
2017-12-04T02:30:20.210Z,72.30
2017-12-04T02:31:20.226Z,65.10
2017-12-04T02:32:20.231Z,64.40
2017-12-04T02:33:20.244Z,55.30
2017-12-04T02:34:20.259Z,54.80
2017-12-04T02:35:20.272Z,60.90
2017-12-04T02:36:20.286Z,60.30
2017-12-04T02:37:20.302Z,57.90
2017-12-04T02:38:20.311Z,53.60
2017-12-04T02:39:20.329Z,53.80
2017-12-04T02:40:20.339Z,49.60
2017-12-04T02:41:20.356Z,47.40
2017-12-04T02:42:20.366Z,46.90
2017-12-04T02:43:20.381Z,52.60
2017-12-04T02:44:20.397Z,50.70
2017-12-04T02:45:20.635Z,53.10
2017-12-04T02:46:20.419Z,56.00
2017-12-04T02:47:20.463Z,54.90
2017-12-04T02:48:20.450Z,57.50
2017-12-04T02:49:20.461Z,55.50
2017-12-04T02:50:20.473Z,62.90
2017-12-04T02:51:20.484Z,63.70
2017-12-04T02:52:20.503Z,60.10
2017-12-04T02:53:20.510Z,56.90
2017-12-04T02:54:20.530Z,53.20
2017-12-04T02:55:20.540Z,59.30
2017-12-04T02:56:20.555Z,56.90
2017-12-04T02:57:20.564Z,56.40
2017-12-04T02:58:20.585Z,57.90
2017-12-04T02:59:20.593Z,58.50
2017-12-04T03:00:20.607Z,56.50
2017-12-04T03:01:20.618Z,57.50
2017-12-04T03:02:20.649Z,55.30
2017-12-04T03:03:20.646Z,61.00
2017-12-04T03:04:20.662Z,59.80
2017-12-04T03:05:20.673Z,57.10
2017-12-04T03:06:20.687Z,61.50
2017-12-04T03:07:20.698Z,62.40
2017-12-04T03:08:20.713Z,60.00
2017-12-04T03:09:20.774Z,57.80
2017-12-04T03:10:20.738Z,55.50
2017-12-04T03:11:20.756Z,64.30
2017-12-04T03:12:20.768Z,58.40
2017-12-04T03:13:20.783Z,62.20
2017-12-04T03:14:20.796Z,60.20
2017-12-04T03:15:20.811Z,61.20
2017-12-04T03:16:20.821Z,57.10
2017-12-04T03:17:20.836Z,59.70
2017-12-04T03:18:20.848Z,58.70
2017-12-04T03:19:20.863Z,63.50
2017-12-04T03:20:20.874Z,63.90
2017-12-04T03:21:20.889Z,59.30
2017-12-04T03:22:20.904Z,58.00
2017-12-04T03:23:20.916Z,56.60
2017-12-04T03:24:20.937Z,64.50
2017-12-04T03:25:20.945Z,56.90
2017-12-04T03:26:20.958Z,66.20
2017-12-04T03:27:20.976Z,63.60
2017-12-04T03:28:20.984Z,57.50
2017-12-04T03:29:21.002Z,59.00
2017-12-04T03:30:21.014Z,58.50
2017-12-04T03:31:21.031Z,54.70
2017-12-04T03:32:21.045Z,54.70
2017-12-04T03:33:21.055Z,55.50
2017-12-04T03:34:21.068Z,62.00
2017-12-04T03:35:21.083Z,56.00
2017-12-04T03:36:21.096Z,57.70
2017-12-04T03:37:21.113Z,59.30
2017-12-04T03:38:21.124Z,56.50
2017-12-04T03:39:21.137Z,57.90
2017-12-04T03:40:21.152Z,50.40
2017-12-04T03:41:21.170Z,71.90
2017-12-04T03:42:21.178Z,59.40
2017-12-04T03:43:21.197Z,62.40
2017-12-04T03:44:21.210Z,53.80
2017-12-04T03:45:21.227Z,57.70
2017-12-04T03:46:21.237Z,59.30
2017-12-04T03:47:21.251Z,58.30
2017-12-04T03:48:21.263Z,61.40
2017-12-04T03:49:21.275Z,64.10
2017-12-04T03:50:21.290Z,61.30
2017-12-04T03:51:21.309Z,62.50
2017-12-04T03:52:21.320Z,57.80
2017-12-04T03:53:21.334Z,62.60
2017-12-04T03:54:21.346Z,55.30
2017-12-04T03:55:21.360Z,57.30
2017-12-04T03:56:21.372Z,53.50
2017-12-04T03:57:21.389Z,58.20
2017-12-04T03:58:21.405Z,55.20
2017-12-04T03:59:21.416Z,55.40
2017-12-04T04:00:21.428Z,57.20
2017-12-04T04:01:21.445Z,60.80
2017-12-04T04:02:21.459Z,65.60
2017-12-04T04:03:21.474Z,61.90
2017-12-04T04:04:21.486Z,63.90
2017-12-04T04:05:21.498Z,66.80
2017-12-04T04:06:21.515Z,62.20
2017-12-04T04:07:21.530Z,59.60
2017-12-04T04:08:21.542Z,59.00
2017-12-04T04:09:21.557Z,54.10
2017-12-04T04:10:21.573Z,51.10
2017-12-04T04:11:21.592Z,58.20
2017-12-04T04:12:21.598Z,51.90
2017-12-04T04:13:21.611Z,60.00
2017-12-04T04:14:21.626Z,58.10
2017-12-04T04:15:21.642Z,54.00
2017-12-04T04:16:21.654Z,50.30
2017-12-04T04:17:21.667Z,52.00
2017-12-04T04:18:21.680Z,47.90
2017-12-04T04:19:21.693Z,47.30
2017-12-04T04:20:21.708Z,48.40
2017-12-04T04:21:21.730Z,53.20
2017-12-04T04:22:21.735Z,49.20
2017-12-04T04:23:21.757Z,57.10
2017-12-04T04:24:21.771Z,51.90
2017-12-04T04:25:21.791Z,49.80
2017-12-04T04:26:21.799Z,46.70
2017-12-04T04:27:21.811Z,40.40
2017-12-04T04:28:21.822Z,40.10
2017-12-04T04:29:21.837Z,41.80
2017-12-04T04:30:21.851Z,38.50
2017-12-04T04:31:21.870Z,37.80
2017-12-04T04:32:21.885Z,37.60
2017-12-04T04:33:21.894Z,35.30
2017-12-04T04:34:21.908Z,34.20
2017-12-04T04:35:21.924Z,41.90
2017-12-04T04:36:21.934Z,42.90
2017-12-04T04:37:21.949Z,39.00
2017-12-04T04:38:21.962Z,35.00
2017-12-04T04:39:21.991Z,37.00
2017-12-04T04:40:21.993Z,38.30
2017-12-04T04:41:22.004Z,36.00
2017-12-04T04:42:22.021Z,36.70
2017-12-04T04:43:22.034Z,35.70
2017-12-04T04:44:22.050Z,33.10
2017-12-04T04:45:22.062Z,33.00
2017-12-04T04:46:22.076Z,42.00
2017-12-04T04:47:22.092Z,35.70
2017-12-04T04:48:22.110Z,38.30
2017-12-04T04:49:22.119Z,32.10
2017-12-04T04:50:22.133Z,32.50
2017-12-04T04:51:22.146Z,32.30
2017-12-04T04:52:22.160Z,37.70
2017-12-04T04:53:22.176Z,31.60
2017-12-04T04:54:22.188Z,28.30
2017-12-04T04:55:22.203Z,30.40
2017-12-04T04:56:22.219Z,30.60
2017-12-04T04:57:22.229Z,32.20
2017-12-04T04:58:22.247Z,26.00
2017-12-04T04:59:22.261Z,34.20
2017-12-04T05:00:22.275Z,34.20
2017-12-04T05:01:22.290Z,31.00
2017-12-04T05:02:22.300Z,32.70
2017-12-04T05:03:22.316Z,34.20
2017-12-04T05:04:22.331Z,31.90
2017-12-04T05:05:22.342Z,32.00
2017-12-04T05:06:22.356Z,28.30
2017-12-04T05:07:22.370Z,31.70
2017-12-04T05:08:22.384Z,35.20
2017-12-04T05:09:22.399Z,31.40
2017-12-04T05:10:22.417Z,28.80
2017-12-04T05:11:22.425Z,30.70
2017-12-04T05:12:22.440Z,31.10
2017-12-04T05:13:22.454Z,30.80
2017-12-04T05:14:22.469Z,29.20
2017-12-04T05:15:22.482Z,30.50
2017-12-04T05:16:23.146Z,28.50
2017-12-04T05:17:22.512Z,25.40
2017-12-04T05:18:22.529Z,25.00
2017-12-04T05:19:22.542Z,26.00
2017-12-04T05:20:22.552Z,27.50
2017-12-04T05:21:22.564Z,25.40
2017-12-04T05:22:22.581Z,24.20
2017-12-04T05:23:22.595Z,28.40
2017-12-04T05:24:22.610Z,25.40
2017-12-04T05:25:22.629Z,24.00
2017-12-04T05:26:22.638Z,26.60
2017-12-04T05:27:22.652Z,21.80
2017-12-04T05:28:22.667Z,25.80
2017-12-04T05:29:22.678Z,24.00
2017-12-04T05:30:22.696Z,27.50
2017-12-04T05:31:22.708Z,28.40
2017-12-04T05:32:22.723Z,26.00
2017-12-04T05:33:22.736Z,28.60
2017-12-04T05:34:22.752Z,33.20
2017-12-04T05:35:22.764Z,31.20
2017-12-04T05:36:22.776Z,30.90
2017-12-04T05:37:22.792Z,34.60
2017-12-04T05:38:22.808Z,37.20
2017-12-04T05:39:22.821Z,39.50
2017-12-04T05:40:22.848Z,30.40
2017-12-04T05:41:22.852Z,34.30
2017-12-04T05:42:22.872Z,36.80
2017-12-04T05:43:22.882Z,39.70
2017-12-04T05:44:22.892Z,40.00
2017-12-04T05:45:22.910Z,40.90
2017-12-04T05:46:22.922Z,32.70
2017-12-04T05:47:22.940Z,36.40
2017-12-04T05:48:22.948Z,37.60
2017-12-04T05:49:22.962Z,36.30
2017-12-04T05:50:22.977Z,41.80
2017-12-04T05:51:23.000Z,33.30
2017-12-04T05:52:23.007Z,35.20
2017-12-04T05:53:23.019Z,27.80
2017-12-04T05:54:23.044Z,35.60
2017-12-04T05:55:23.064Z,35.90
2017-12-04T05:56:23.079Z,30.50
2017-12-04T05:57:23.083Z,30.10
2017-12-04T05:58:23.098Z,33.80
2017-12-04T05:59:23.115Z,38.40
2017-12-04T06:00:23.121Z,35.80
2017-12-04T06:01:23.130Z,36.70
2017-12-04T06:02:23.143Z,29.60
2017-12-04T06:03:23.161Z,34.00
2017-12-04T06:04:23.175Z,33.10
2017-12-04T06:05:23.188Z,31.50
2017-12-04T06:06:23.202Z,31.30
2017-12-04T06:07:23.217Z,28.00
2017-12-04T06:08:23.236Z,37.00
2017-12-04T06:09:23.250Z,38.90
2017-12-04T06:10:23.264Z,41.80
2017-12-04T06:11:23.331Z,31.70
2017-12-04T06:12:23.287Z,32.70
2017-12-04T06:13:23.305Z,36.80
2017-12-04T06:14:23.316Z,33.00
2017-12-04T06:15:23.333Z,39.10
2017-12-04T06:16:23.342Z,33.30
2017-12-04T06:17:23.371Z,35.40
2017-12-04T06:18:23.374Z,29.40
2017-12-04T06:19:23.385Z,31.40
2017-12-04T06:20:23.397Z,32.70
2017-12-04T06:21:23.421Z,33.20
2017-12-04T06:22:23.428Z,33.90
2017-12-04T06:23:23.439Z,32.10
2017-12-04T06:24:23.455Z,70.60
2017-12-04T06:25:23.469Z,41.20
2017-12-04T06:26:23.484Z,64.20
2017-12-04T06:27:23.531Z,22.30
2017-12-04T06:28:23.528Z,16.50
2017-12-04T06:29:23.538Z,28.80
2017-12-04T06:30:23.562Z,22.70
2017-12-04T06:31:23.569Z,13.10
2017-12-04T06:32:23.591Z,13.80
2017-12-04T06:33:23.601Z,16.00
2017-12-04T06:34:23.629Z,15.50
2017-12-04T06:35:23.648Z,18.40
2017-12-04T06:36:23.644Z,16.00
2017-12-04T06:37:23.672Z,13.40
2017-12-04T06:38:23.660Z,12.90
2017-12-04T06:39:23.676Z,17.90
2017-12-04T06:40:23.679Z,10.30
2017-12-04T06:41:23.692Z,11.20
2017-12-04T06:42:23.706Z,17.50
2017-12-04T06:43:23.733Z,169.70
2017-12-04T06:44:23.733Z,50.60
2017-12-04T06:45:23.753Z,16.20
2017-12-04T06:46:23.767Z,12.80
2017-12-04T06:47:23.779Z,12.20
2017-12-04T06:48:23.792Z,13.00
2017-12-04T06:49:23.808Z,9.10
2017-12-04T06:50:23.825Z,28.80
2017-12-04T06:51:23.836Z,24.00
2017-12-04T06:52:23.852Z,19.50
2017-12-04T06:53:23.871Z,21.90
2017-12-04T06:54:23.878Z,13.70
2017-12-04T06:55:23.895Z,13.70
2017-12-04T06:56:23.920Z,16.40
2017-12-04T06:57:23.923Z,15.90
2017-12-04T06:58:23.935Z,16.50
2017-12-04T06:59:23.947Z,15.60
2017-12-04T07:00:23.966Z,24.00
2017-12-04T07:01:23.983Z,22.40
2017-12-04T07:02:24.001Z,17.60
2017-12-04T07:03:24.006Z,15.50
2017-12-04T07:04:24.030Z,12.40
2017-12-04T07:05:24.049Z,14.50
2017-12-04T07:06:24.050Z,16.50
2017-12-04T07:07:24.060Z,16.10
2017-12-04T07:08:24.077Z,23.00
2017-12-04T07:09:24.091Z,22.10
2017-12-04T07:10:24.103Z,23.70
2017-12-04T07:11:24.117Z,28.10
2017-12-04T07:12:24.130Z,36.30
2017-12-04T07:13:24.146Z,160.10
2017-12-04T07:14:24.166Z,45.60
2017-12-04T07:15:24.174Z,24.80
2017-12-04T07:16:24.189Z,25.60
2017-12-04T07:17:24.202Z,24.30
2017-12-04T07:18:24.221Z,25.90
2017-12-04T07:19:24.232Z,23.80
2017-12-04T07:20:24.258Z,21.40
2017-12-04T07:21:24.257Z,26.80
2017-12-04T07:22:24.276Z,20.40
2017-12-04T07:23:24.300Z,23.60
2017-12-04T07:24:24.303Z,23.50
2017-12-04T07:25:24.435Z,27.00
2017-12-04T07:26:24.341Z,21.30
2017-12-04T07:27:24.345Z,22.00
2017-12-04T07:28:24.355Z,27.00
2017-12-04T07:29:24.372Z,35.40
2017-12-04T07:30:24.385Z,25.40
2017-12-04T07:31:24.405Z,28.20
2017-12-04T07:32:24.415Z,26.40
2017-12-04T07:33:24.427Z,98.30
2017-12-04T07:34:24.443Z,39.70
2017-12-04T07:35:24.458Z,27.60
2017-12-04T07:36:24.482Z,22.10
2017-12-04T07:37:24.487Z,64.50
2017-12-04T07:38:24.501Z,22.50
2017-12-04T07:39:24.527Z,24.10
2017-12-04T07:40:24.528Z,26.70
2017-12-04T07:41:24.541Z,20.30
2017-12-04T07:42:24.566Z,20.30
2017-12-04T07:43:24.573Z,19.50
2017-12-04T07:44:24.586Z,20.70
2017-12-04T07:45:24.614Z,24.00
2017-12-04T07:46:24.635Z,20.90
2017-12-04T07:47:24.633Z,19.20
2017-12-04T07:48:24.644Z,23.20
2017-12-04T07:49:24.659Z,20.40
2017-12-04T07:50:24.672Z,20.80
2017-12-04T07:51:24.690Z,19.90
2017-12-04T07:52:24.703Z,25.70
2017-12-04T07:53:24.722Z,27.70
2017-12-04T07:54:24.742Z,27.30
2017-12-04T07:55:24.747Z,21.00
2017-12-04T07:56:24.770Z,21.20
2017-12-04T07:57:24.771Z,22.00
2017-12-04T07:58:24.789Z,16.60
2017-12-04T07:59:24.806Z,20.90
2017-12-04T08:00:24.816Z,22.00
2017-12-04T08:01:24.841Z,23.20
2017-12-04T08:02:24.843Z,22.80
2017-12-04T08:03:24.860Z,17.40
2017-12-04T08:04:24.886Z,17.20
2017-12-04T08:05:24.889Z,19.60
2017-12-04T08:06:24.906Z,17.50
2017-12-04T08:07:24.918Z,19.70
2017-12-04T08:08:24.931Z,20.80
2017-12-04T08:09:24.958Z,23.80
2017-12-04T08:10:24.961Z,20.40
2017-12-04T08:11:24.975Z,16.60
2017-12-04T08:12:24.987Z,28.20
2017-12-04T08:13:25.002Z,19.40
2017-12-04T08:14:25.038Z,19.40
2017-12-04T08:15:25.034Z,19.60
2017-12-04T08:16:25.046Z,20.00
2017-12-04T08:17:25.062Z,18.90
2017-12-04T08:18:25.075Z,21.90
2017-12-04T08:19:25.091Z,26.60
2017-12-04T08:20:25.105Z,16.20
2017-12-04T08:21:25.119Z,28.50
2017-12-04T08:22:25.136Z,25.80
2017-12-04T08:23:25.147Z,17.20
2017-12-04T08:24:25.170Z,25.50
2017-12-04T08:25:25.180Z,25.60
2017-12-04T08:26:25.192Z,19.40
2017-12-04T08:27:25.206Z,23.50
2017-12-04T08:28:25.222Z,22.50
2017-12-04T08:29:25.235Z,22.50
2017-12-04T08:30:25.250Z,28.20
2017-12-04T08:31:25.271Z,24.40
2017-12-04T08:32:25.282Z,20.20
2017-12-04T08:33:25.298Z,20.90
2017-12-04T08:34:25.306Z,29.10
2017-12-04T08:35:25.328Z,25.00
2017-12-04T08:36:25.343Z,24.50
2017-12-04T08:37:25.351Z,27.90
2017-12-04T08:38:25.373Z,26.30
2017-12-04T08:39:25.388Z,21.60
2017-12-04T08:40:25.396Z,24.50
2017-12-04T08:41:25.411Z,26.00
2017-12-04T08:42:25.430Z,25.10
2017-12-04T08:43:25.440Z,30.30
2017-12-04T08:44:25.456Z,16.00
2017-12-04T08:45:25.478Z,24.40
2017-12-04T08:46:25.488Z,20.40
2017-12-04T08:47:25.499Z,30.00
2017-12-04T08:48:25.513Z,20.80
2017-12-04T08:49:25.531Z,27.40
2017-12-04T08:50:25.543Z,24.70
2017-12-04T08:51:25.559Z,26.30
2017-12-04T08:52:25.577Z,21.60
2017-12-04T08:53:25.589Z,29.00
2017-12-04T08:54:25.609Z,27.30
2017-12-04T08:55:25.618Z,25.70
2017-12-04T08:56:25.634Z,25.70
2017-12-04T08:57:25.649Z,27.90
2017-12-04T08:58:25.664Z,25.60
2017-12-04T08:59:25.682Z,24.30
2017-12-04T09:00:25.693Z,30.50
2017-12-04T09:01:25.711Z,25.20
2017-12-04T09:02:25.725Z,21.80
2017-12-04T09:03:25.790Z,25.20
2017-12-04T09:04:25.754Z,22.70
2017-12-04T09:05:25.767Z,29.60
2017-12-04T09:06:26.568Z,26.50
2017-12-04T09:07:25.819Z,23.20
2017-12-04T09:08:25.812Z,46.40
2017-12-04T09:09:25.928Z,37.90
2017-12-04T09:10:25.841Z,30.10
2017-12-04T09:11:25.858Z,28.50
2017-12-04T09:12:25.921Z,25.80
2017-12-04T09:13:25.887Z,25.40
2017-12-04T09:14:25.901Z,29.60
2017-12-04T09:15:25.917Z,28.50
2017-12-04T09:16:25.931Z,27.80
2017-12-04T09:17:26.003Z,21.10
2017-12-04T09:18:25.962Z,28.10
2017-12-04T09:19:25.977Z,19.70
2017-12-04T09:20:25.991Z,30.00
2017-12-04T09:21:26.011Z,25.50
2017-12-04T09:22:26.030Z,21.30
2017-12-04T09:23:26.035Z,27.10
2017-12-04T09:24:26.050Z,24.00
2017-12-04T09:25:26.074Z,21.50
2017-12-04T09:26:26.124Z,18.10
2017-12-04T09:27:26.097Z,18.60
2017-12-04T09:28:26.111Z,21.80
2017-12-04T09:29:26.128Z,20.20
2017-12-04T09:30:26.141Z,14.30
2017-12-04T09:31:26.163Z,17.80
2017-12-04T09:32:26.175Z,17.70
2017-12-04T09:33:26.188Z,15.40
2017-12-04T09:34:26.202Z,19.20
2017-12-04T09:35:26.215Z,18.90
2017-12-04T09:36:26.242Z,16.20
2017-12-04T09:37:26.303Z,14.00
2017-12-04T09:38:26.263Z,14.30
2017-12-04T09:39:26.279Z,17.60
2017-12-04T09:40:26.290Z,24.20
2017-12-04T09:41:26.305Z,20.20
2017-12-04T09:42:26.320Z,21.30
2017-12-04T09:43:26.342Z,25.80
2017-12-04T09:44:26.351Z,17.10
2017-12-04T09:45:26.365Z,15.80
2017-12-04T09:46:26.378Z,17.10
2017-12-04T09:47:26.395Z,25.20
2017-12-04T09:48:26.409Z,18.80
2017-12-04T09:49:26.424Z,19.40
2017-12-04T09:50:26.439Z,22.30
2017-12-04T09:51:26.455Z,17.40
2017-12-04T09:52:26.468Z,20.60
2017-12-04T09:53:26.483Z,19.50
2017-12-04T09:54:26.501Z,20.50
2017-12-04T09:55:26.518Z,19.50
2017-12-04T09:56:26.529Z,17.00
2017-12-04T09:57:26.543Z,28.90
2017-12-04T09:58:26.557Z,20.60
2017-12-04T09:59:26.571Z,27.20
2017-12-04T10:00:26.587Z,17.40
2017-12-04T10:01:26.603Z,16.70
2017-12-04T10:02:26.615Z,23.30
2017-12-04T10:03:26.641Z,22.60
2017-12-04T10:04:26.645Z,17.00
2017-12-04T10:05:26.663Z,15.70
2017-12-04T10:06:26.679Z,13.60
2017-12-04T10:07:26.687Z,18.40
2017-12-04T10:08:26.703Z,16.30
2017-12-04T10:09:26.719Z,9.90
2017-12-04T10:10:26.738Z,7.30
2017-12-04T10:11:26.782Z,5.00
2017-12-04T10:12:26.761Z,9.70
2017-12-04T10:13:26.777Z,6.40
2017-12-04T10:14:26.794Z,3.10
2017-12-04T10:15:26.805Z,2.70
2017-12-04T10:16:26.823Z,5.60
2017-12-04T10:17:26.836Z,9.70
2017-12-04T10:18:26.846Z,2.60
2017-12-04T10:19:26.864Z,4.20
2017-12-04T10:20:27.614Z,6.90
2017-12-04T10:21:26.889Z,3.90
2017-12-04T10:22:26.915Z,3.50
2017-12-04T10:23:26.917Z,2.60
2017-12-04T10:24:26.933Z,2.10
2017-12-04T10:25:26.948Z,2.00
2017-12-04T10:26:26.962Z,2.90
2017-12-04T10:27:26.976Z,5.40
2017-12-04T10:28:26.995Z,4.20
2017-12-04T10:29:27.007Z,2.20
2017-12-04T10:30:27.025Z,18.70
2017-12-04T10:31:27.040Z,8.80
2017-12-04T10:32:27.050Z,7.80
2017-12-04T10:33:27.065Z,7.20
2017-12-04T10:34:27.078Z,4.50
2017-12-04T10:35:27.095Z,10.70
2017-12-04T10:36:27.108Z,27.90
2017-12-04T10:37:27.133Z,19.10
2017-12-04T10:38:27.140Z,11.50
2017-12-04T10:39:27.153Z,19.10
2017-12-04T10:40:27.168Z,34.80
2017-12-04T10:41:27.234Z,11.40
2017-12-04T10:42:27.201Z,10.80
2017-12-04T10:43:27.231Z,9.10
2017-12-04T10:44:27.226Z,7.80
2017-12-04T10:45:27.242Z,8.70
2017-12-04T10:46:27.257Z,7.50
2017-12-04T10:47:27.278Z,8.80
2017-12-04T10:48:27.289Z,14.50
2017-12-04T10:49:27.303Z,9.60
2017-12-04T10:50:27.319Z,10.70
2017-12-04T10:51:27.333Z,11.50
2017-12-04T10:52:27.349Z,13.40
2017-12-04T10:53:27.371Z,15.60
2017-12-04T10:54:27.379Z,14.50
2017-12-04T10:55:27.395Z,9.40
2017-12-04T10:56:27.406Z,12.00
2017-12-04T10:57:27.421Z,10.10
2017-12-04T10:58:27.439Z,12.30
2017-12-04T10:59:27.452Z,14.80
2017-12-04T11:00:27.474Z,12.50
2017-12-04T11:01:27.487Z,12.70
2017-12-04T11:02:27.501Z,12.40
2017-12-04T11:03:27.512Z,13.80
2017-12-04T11:04:27.526Z,41.80
2017-12-04T11:05:27.543Z,26.80
2017-12-04T11:06:27.557Z,16.80
2017-12-04T11:07:27.572Z,18.90
2017-12-04T11:08:27.588Z,16.70
2017-12-04T11:09:27.609Z,15.40
2017-12-04T11:10:27.617Z,12.00
2017-12-04T11:11:27.635Z,12.30
2017-12-04T11:12:27.649Z,12.30
2017-12-04T11:13:27.661Z,10.40
2017-12-04T11:14:27.681Z,8.80
2017-12-04T11:15:27.693Z,11.80
2017-12-04T11:16:27.705Z,9.50
2017-12-04T11:17:27.724Z,9.00
2017-12-04T11:18:27.735Z,9.80
2017-12-04T11:19:27.755Z,16.70
2017-12-04T11:20:27.769Z,16.50
2017-12-04T11:21:27.786Z,12.10
2017-12-04T11:22:27.801Z,11.90
2017-12-04T11:23:27.813Z,15.20
2017-12-04T11:24:27.830Z,12.40
2017-12-04T11:25:27.845Z,9.70
2017-12-04T11:26:27.860Z,13.20
2017-12-04T11:27:27.872Z,12.40
2017-12-04T11:28:27.889Z,11.50
2017-12-04T11:29:27.905Z,13.10
2017-12-04T11:30:27.918Z,9.30
2017-12-04T11:31:27.935Z,11.60
2017-12-04T11:32:27.949Z,10.80
2017-12-04T11:33:27.966Z,11.00
2017-12-04T11:34:27.980Z,12.60
2017-12-04T11:35:27.997Z,15.80
2017-12-04T11:36:28.014Z,12.40
2017-12-04T11:37:28.027Z,12.90
2017-12-04T11:38:28.046Z,10.40
2017-12-04T11:39:28.059Z,11.00
2017-12-04T11:40:28.074Z,11.60
2017-12-04T11:41:28.089Z,8.90
2017-12-04T11:42:28.106Z,13.10
2017-12-04T11:43:28.122Z,11.80
2017-12-04T11:44:28.136Z,13.00
2017-12-04T11:45:28.152Z,16.70
2017-12-04T11:46:28.169Z,15.80
2017-12-04T11:47:28.184Z,17.20
2017-12-04T11:48:28.199Z,17.00
2017-12-04T11:49:28.214Z,55.20
2017-12-04T11:50:28.230Z,47.60
2017-12-04T11:51:28.249Z,21.90
2017-12-04T11:52:28.263Z,17.70
2017-12-04T11:53:28.277Z,15.70
2017-12-04T11:54:28.296Z,9.20
2017-12-04T11:55:28.311Z,16.20
2017-12-04T11:56:28.326Z,15.70
2017-12-04T11:57:28.340Z,11.30
2017-12-04T11:58:28.360Z,13.70
2017-12-04T11:59:28.373Z,13.10
2017-12-04T12:00:28.388Z,16.10
2017-12-04T12:01:28.409Z,12.90
2017-12-04T12:02:28.422Z,20.40
2017-12-04T12:03:28.440Z,12.60
2017-12-04T12:04:28.459Z,16.50
2017-12-04T12:05:28.470Z,14.90
2017-12-04T12:06:28.481Z,16.40
2017-12-04T12:07:28.502Z,13.40
2017-12-04T12:08:28.513Z,12.00
2017-12-04T12:09:28.528Z,18.80
2017-12-04T12:10:28.547Z,19.50
2017-12-04T12:11:28.560Z,19.50
2017-12-04T12:12:28.575Z,18.80
2017-12-04T12:13:28.593Z,16.40
2017-12-04T12:14:28.614Z,16.60
2017-12-04T12:15:28.630Z,17.70
2017-12-04T12:16:28.640Z,21.10
2017-12-04T12:17:28.655Z,19.00
2017-12-04T12:18:28.668Z,20.10
2017-12-04T12:19:28.686Z,17.90
2017-12-04T12:20:28.701Z,16.80
2017-12-04T12:21:28.717Z,22.20
2017-12-04T12:22:28.732Z,24.40
2017-12-04T12:23:28.745Z,19.30
2017-12-04T12:24:28.763Z,21.30
2017-12-04T12:25:28.781Z,19.10
2017-12-04T12:26:28.794Z,16.50
2017-12-04T12:27:28.812Z,20.70
2017-12-04T12:28:28.832Z,19.00
2017-12-04T12:29:28.847Z,15.90
2017-12-04T12:30:28.857Z,19.40
2017-12-04T12:31:28.874Z,17.30
2017-12-04T12:32:28.888Z,16.20
2017-12-04T12:33:28.904Z,15.60
2017-12-04T12:34:28.921Z,23.20
2017-12-04T12:35:28.937Z,21.10
2017-12-04T12:36:28.951Z,15.50
2017-12-04T12:37:28.969Z,18.00
2017-12-04T12:38:28.981Z,15.60
2017-12-04T12:39:28.999Z,20.00
2017-12-04T12:40:29.016Z,16.00
2017-12-04T12:41:29.028Z,13.60
2017-12-04T12:42:29.044Z,14.40
2017-12-04T12:43:29.061Z,14.30
2017-12-04T12:44:29.077Z,14.20
2017-12-04T12:45:29.090Z,12.80
2017-12-04T12:46:29.115Z,16.40
2017-12-04T12:47:29.124Z,14.00
2017-12-04T12:48:29.137Z,13.30
2017-12-04T12:49:29.155Z,14.20
2017-12-04T12:50:29.172Z,13.80
2017-12-04T12:51:29.187Z,10.30
2017-12-04T12:52:29.202Z,16.50
2017-12-04T12:53:29.219Z,12.90